Time;durP1;ratioP1;P1;durP2;ratioP2;P2;SDS_P1;SDS_P2;PMS_P1;PMS_P2;Temp;Humidity;BMP_temperature;BMP_pressure;BME280_temperature;BME280_humidity;BME280_pressure;Samples;Min_cycle;Max_cycle;Signal;HPM_P1;HPM_P2
2024/04/21 00:01:45;;;;;;;4.50;3.00;;;;;;;10.05;59.79;98423.02;105599;1260;61244;-27
2024/04/21 00:04:13;;;;;;;5.20;3.20;;;;;;;9.73;60.46;98426.83;105560;1256;73305;-27
2024/04/21 00:06:41;;;;;;;4.00;3.00;;;;;;;9.34;62.05;98427.63;105682;1257;74504;-26
2024/04/21 00:09:29;;;;;;;5.20;3.30;;;;;;;9.23;62.26;98426.64;105627;1251;71166;-26
2024/04/21 00:11:57;;;;;;;3.60;2.70;;;;;;;8.72;64.18;98423.83;105663;1251;61433;-26
2024/04/21 00:14:25;;;;;;;4.00;2.70;;;;;;;8.67;64.30;98417.31;105685;1256;61221;-26
2024/04/21 00:16:52;;;;;;;3.40;2.70;;;;;;;8.98;64.07;98413.70;105910;1251;73431;-26
2024/04/21 00:19:20;;;;;;;3.60;2.60;;;;;;;9.83;61.28;98407.78;105868;1257;74361;-26
2024/04/21 00:21:48;;;;;;;4.50;3.50;;;;;;;9.96;60.45;98408.02;105665;1257;71118;-26
2024/04/21 00:24:15;;;;;;;5.90;3.70;;;;;;;9.82;60.72;98410.60;105623;1254;61327;-26
2024/04/21 00:26:42;;;;;;;4.60;2.60;;;;;;;9.58;61.36;98406.45;105579;1257;61145;-26
2024/04/21 00:29:14;;;;;;;5.70;2.40;;;;;;;9.72;61.03;98406.68;105620;1253;74656;-26
2024/04/21 00:31:41;;;;;;;5.10;3.40;;;;;;;9.68;60.75;98403.77;105536;1251;74500;-26
2024/04/21 00:34:09;;;;;;;5.70;3.20;;;;;;;9.57;60.94;98401.69;105530;1251;70983;-26
2024/04/21 00:36:38;;;;;;;3.30;2.30;;;;;;;9.47;61.01;98396.91;105524;1251;61224;-27
2024/04/21 00:39:05;;;;;;;3.20;1.80;;;;;;;9.22;62.01;98396.99;105395;1251;61288;-26
2024/04/21 00:41:33;;;;;;;3.30;2.20;;;;;;;9.69;61.91;98385.89;105614;1251;74586;-26
2024/04/21 00:44:00;;;;;;;2.80;2.20;;;;;;;10.38;60.12;98378.46;105549;1251;74396;-26
2024/04/21 00:46:28;;;;;;;3.40;2.50;;;;;;;10.52;59.36;98376.70;105583;1254;72593;-26
2024/04/21 00:49:02;;;;;;;4.70;2.70;;;;;;;10.43;58.83;98374.41;105655;1251;61227;-26
2024/04/21 00:51:30;;;;;;;2.10;1.60;;;;;;;10.24;59.29;98367.41;105951;1252;61278;-26
2024/04/21 00:53:57;;;;;;;2.70;1.90;;;;;;;10.00;59.59;98363.44;105675;1251;74730;-26
2024/04/21 00:56:25;;;;;;;2.60;1.90;;;;;;;9.78;59.88;98358.50;105544;1257;73200;-26
2024/04/21 00:58:52;;;;;;;2.70;2.40;;;;;;;9.46;60.47;98358.52;105558;1254;72780;-26
2024/04/21 01:01:21;;;;;;;2.40;2.00;;;;;;;9.26;61.33;98359.70;105635;1254;61317;-26
2024/04/21 01:03:50;;;;;;;2.40;1.90;;;;;;;9.05;61.67;98355.41;105402;1251;61218;-26
2024/04/21 01:06:19;;;;;;;5.10;1.70;;;;;;;8.81;62.53;98353.64;105588;1251;73114;-26
2024/04/21 01:08:46;;;;;;;3.20;2.20;;;;;;;9.30;63.20;98343.91;105569;1259;74520;-26
2024/04/21 01:11:15;;;;;;;3.40;2.00;;;;;;;9.95;61.35;98338.29;105565;1251;71187;-26
2024/04/21 01:13:43;;;;;;;4.10;2.10;;;;;;;10.03;60.34;98328.20;105596;1251;61898;-26
2024/04/21 01:16:11;;;;;;;3.60;2.50;;;;;;;9.91;60.19;98328.73;105665;1251;61400;-28
2024/04/21 01:18:39;;;;;;;2.00;1.80;;;;;;;9.72;60.69;98329.51;105727;1251;74643;-26
2024/04/21 01:21:06;;;;;;;3.80;2.00;;;;;;;9.50;61.23;98327.43;105687;1251;73174;-26
2024/04/21 01:23:34;;;;;;;4.80;2.20;;;;;;;9.32;61.53;98329.59;105570;1256;72705;-26
2024/04/21 01:26:11;;;;;;;5.80;3.10;;;;;;;8.99;62.54;98333.45;105566;1257;61308;-26
2024/04/21 01:28:38;;;;;;;4.00;2.50;;;;;;;8.97;62.70;98331.75;105547;1257;61787;-26
2024/04/21 01:31:06;;;;;;;4.20;1.70;;;;;;;8.84;63.14;98336.31;105901;1257;74565;-26
2024/04/21 01:34:55;;;;;;;3.00;2.00;;;;;;;9.46;62.48;98326.38;102623;1292;599726;-25
2024/04/21 01:37:23;;;;;;;2.10;1.80;;;;;;;10.11;59.93;98320.00;104839;1270;61189;-26
2024/04/21 01:39:51;;;;;;;3.10;2.30;;;;;;;10.08;59.66;98316.97;104825;1266;61069;-26
2024/04/21 01:42:18;;;;;;;2.70;1.60;;;;;;;9.85;60.23;98318.35;104822;1264;73178;-25
2024/04/21 01:44:46;;;;;;;3.70;1.70;;;;;;;9.64;60.60;98317.75;104815;1271;74516;-25
2024/04/21 01:47:13;;;;;;;3.00;2.20;;;;;;;9.35;61.20;98320.16;104819;1270;71518;-25
2024/04/21 01:49:41;;;;;;;3.10;2.80;;;;;;;8.81;62.44;98318.48;101508;1263;4813863;-28
2024/04/21 01:52:09;;;;;;;3.50;2.40;;;;;;;8.86;62.46;98318.92;105036;1268;61244;-28
2024/04/21 01:54:36;;;;;;;3.70;2.50;;;;;;;8.77;62.84;98324.58;105015;1266;73012;-28
2024/04/21 01:57:04;;;;;;;6.10;2.90;;;;;;;8.23;64.47;98325.77;104792;1263;74410;-28
2024/04/21 01:59:31;;;;;;;3.40;2.60;;;;;;;8.72;63.52;98326.02;105043;1268;72523;-28
2024/04/21 02:01:59;;;;;;;3.10;2.20;;;;;;;9.28;61.54;98319.15;105116;1263;60976;-28
2024/04/21 02:04:26;;;;;;;4.90;2.50;;;;;;;9.44;60.89;98318.51;104767;1263;61085;-28
2024/04/21 02:06:54;;;;;;;2.10;1.80;;;;;;;9.45;60.69;98313.02;104908;1263;73875;-28
2024/04/21 02:09:22;;;;;;;6.00;2.50;;;;;;;9.17;60.98;98317.67;104902;1263;74500;-28
2024/04/21 02:11:49;;;;;;;5.30;2.20;;;;;;;9.05;61.68;98318.02;104780;1268;73099;-28
2024/04/21 02:14:17;;;;;;;3.50;2.30;;;;;;;9.03;61.81;98313.71;104996;1268;61165;-27
2024/04/21 02:16:44;;;;;;;2.60;2.00;;;;;;;8.69;62.73;98316.95;104777;1263;61176;-28
2024/04/21 02:19:12;;;;;;;2.70;2.00;;;;;;;8.62;63.06;98314.05;105066;1268;73887;-28
2024/04/21 02:21:39;;;;;;;4.30;1.80;;;;;;;8.29;64.04;98318.72;105147;1267;73164;-27
2024/04/21 02:24:07;;;;;;;1.50;1.40;;;;;;;8.57;63.39;98311.23;105108;1263;71729;-28
2024/04/21 02:26:43;;;;;;;3.10;2.00;;;;;;;9.00;61.51;98303.89;105111;1267;61221;-28
2024/04/21 02:29:11;;;;;;;3.20;2.10;;;;;;;9.27;60.76;98302.95;105098;1263;61143;-28
2024/04/21 02:31:38;;;;;;;5.80;2.10;;;;;;;9.08;60.97;98308.59;105095;1268;73910;-28
2024/04/21 02:34:06;;;;;;;3.50;2.20;;;;;;;8.56;62.73;98307.48;105091;1263;74318;-28
2024/04/21 02:36:34;;;;;;;3.00;2.30;;;;;;;8.45;63.36;98301.95;105421;1262;72897;-28
2024/04/21 02:39:01;;;;;;;2.70;2.30;;;;;;;8.59;62.88;98297.17;105595;1256;61080;-28
2024/04/21 02:41:29;;;;;;;3.10;2.30;;;;;;;8.33;63.45;98291.89;105488;1256;61065;-28
2024/04/21 02:43:56;;;;;;;2.00;1.70;;;;;;;8.22;64.04;98284.87;105556;1262;72848;-28
2024/04/21 02:46:24;;;;;;;3.00;2.10;;;;;;;8.93;61.93;98275.27;105531;1256;74510;-28
2024/04/21 02:48:52;;;;;;;4.40;2.70;;;;;;;9.06;61.00;98268.22;105467;1257;72688;-28
2024/04/21 02:51:19;;;;;;;3.00;1.70;;;;;;;8.81;61.54;98266.65;105169;1256;61460;-28
2024/04/21 02:53:47;;;;;;;5.40;2.20;;;;;;;8.55;62.42;98271.60;105136;1256;61075;-28
2024/04/21 02:56:14;;;;;;;2.80;2.10;;;;;;;8.51;62.70;98267.04;105871;1259;72534;-28
2024/04/21 02:58:42;;;;;;;2.80;2.10;;;;;;;8.40;63.17;98264.35;105775;1253;73066;-28
2024/04/21 03:01:09;;;;;;;4.00;2.80;;;;;;;8.20;63.71;98259.94;105584;1258;72645;-28
2024/04/21 03:03:37;;;;;;;2.20;2.00;;;;;;;8.17;63.81;98256.23;105577;1253;61087;-25
2024/04/21 03:06:05;;;;;;;1.80;1.60;;;;;;;8.52;62.74;98252.77;105723;1259;61169;-25
2024/04/21 03:08:32;;;;;;;2.90;2.00;;;;;;;8.76;61.46;98250.28;105692;1258;73792;-25
2024/04/21 03:11:00;;;;;;;3.20;2.30;;;;;;;8.62;61.50;98248.02;105708;1253;74157;-25
2024/04/21 03:13:28;;;;;;;3.80;2.80;;;;;;;8.94;60.80;98247.17;105833;1256;72766;-25
2024/04/21 03:15:56;;;;;;;3.60;2.30;;;;;;;8.19;62.56;98250.56;105648;1255;61037;-27
2024/04/21 03:18:25;;;;;;;4.20;2.60;;;;;;;7.98;63.44;98252.67;105681;1254;61076;-28
2024/04/21 03:20:56;;;;;;;3.20;2.50;;;;;;;7.74;64.41;98254.61;105764;1253;73863;-28
2024/04/21 03:23:24;;;;;;;7.00;2.80;;;;;;;7.81;64.12;98247.63;105699;1253;74449;-28
2024/04/21 03:25:52;;;;;;;4.90;2.30;;;;;;;7.57;65.05;98243.72;105850;1253;72635;-28
2024/04/21 03:28:20;;;;;;;4.80;1.80;;;;;;;8.18;63.26;98244.61;105843;1257;61076;-28
2024/04/21 03:30:55;;;;;;;3.50;2.20;;;;;;;8.53;61.75;98235.57;105840;1251;61120;-28
2024/04/21 03:33:22;;;;;;;3.90;2.30;;;;;;;8.13;62.90;98230.30;105739;1253;71748;-28
2024/04/21 03:36:02;;;;;;;2.60;2.10;;;;;;;8.32;62.18;98231.61;105611;1258;73128;-28
2024/04/21 03:38:30;;;;;;;3.20;2.40;;;;;;;8.51;61.62;98242.70;105665;1253;72636;-28
2024/04/21 03:40:58;;;;;;;3.40;2.30;;;;;;;8.47;61.78;98235.59;105832;1254;61157;-28
2024/04/21 03:43:25;;;;;;;5.90;2.80;;;;;;;8.09;62.84;98237.50;105790;1258;61149;-28
2024/04/21 03:45:53;;;;;;;4.40;2.70;;;;;;;8.02;63.27;98235.91;105718;1253;73843;-28
2024/04/21 03:48:21;;;;;;;2.20;1.20;;;;;;;7.93;63.62;98230.42;105748;1257;73090;-28
2024/04/21 03:50:49;;;;;;;3.30;2.40;;;;;;;8.70;61.57;98233.81;105792;1258;72641;-28
2024/04/21 03:53:17;;;;;;;3.30;2.10;;;;;;;8.83;60.39;98232.54;105747;1257;61148;-28
2024/04/21 03:55:45;;;;;;;3.80;2.50;;;;;;;8.72;60.30;98224.77;105539;1253;61059;-28
2024/04/21 03:58:12;;;;;;;2.80;2.10;;;;;;;8.67;60.50;98222.95;105636;1259;72637;-28
2024/04/21 04:00:40;;;;;;;3.00;2.20;;;;;;;8.43;60.89;98222.58;105832;1253;74512;-27
2024/04/21 04:03:08;;;;;;;3.40;2.00;;;;;;;7.94;62.63;98219.95;105905;1253;71425;-28
2024/04/21 04:05:36;;;;;;;4.00;2.50;;;;;;;8.28;61.75;98216.04;105673;1256;61016;-28
2024/04/21 04:08:04;;;;;;;6.50;3.90;;;;;;;8.00;62.47;98216.17;105771;1253;61090;-28
2024/04/21 04:10:31;;;;;;;5.80;3.30;;;;;;;7.93;62.82;98213.30;105698;1253;73835;-28
2024/04/21 04:12:59;;;;;;;6.70;3.90;;;;;;;7.90;63.05;98207.98;105832;1258;74460;-28
2024/04/21 04:15:26;;;;;;;6.30;3.10;;;;;;;8.48;61.42;98198.80;105833;1253;72694;-28
2024/04/21 04:17:54;;;;;;;3.40;2.30;;;;;;;8.79;60.32;98191.11;105791;1257;61109;-28
2024/04/21 04:20:21;;;;;;;6.00;3.10;;;;;;;8.72;60.25;98185.49;105571;1253;61644;-28
2024/04/21 04:22:49;;;;;;;5.20;2.70;;;;;;;8.48;60.86;98186.04;105751;1254;73886;-28
2024/04/21 04:25:16;;;;;;;3.50;2.60;;;;;;;8.64;60.34;98184.79;105572;1251;74322;-28
2024/04/21 04:27:44;;;;;;;4.80;2.30;;;;;;;8.39;61.12;98178.96;105625;1259;71724;-28
2024/04/21 04:30:12;;;;;;;4.30;3.00;;;;;;;8.33;61.28;98168.79;105633;1254;61110;-28
2024/04/21 04:32:39;;;;;;;4.60;2.20;;;;;;;8.56;60.67;98162.52;105648;1253;61032;-28
2024/04/21 04:35:07;;;;;;;3.60;2.50;;;;;;;8.32;61.27;98157.62;105923;1256;73808;-28
2024/04/21 04:37:34;;;;;;;1.40;1.20;;;;;;;8.36;61.57;98153.48;105875;1257;72738;-28
2024/04/21 04:40:02;;;;;;;2.60;1.70;;;;;;;8.93;59.59;98161.00;105670;1259;72748;-28
2024/04/21 04:42:30;;;;;;;4.60;2.30;;;;;;;9.10;58.87;98158.32;105570;1256;61110;-29
2024/04/21 04:44:57;;;;;;;2.00;1.40;;;;;;;9.18;58.41;98147.41;105511;1253;61490;-27
2024/04/21 04:47:24;;;;;;;3.20;2.60;;;;;;;9.01;58.80;98144.20;105838;1259;74233;-27
2024/04/21 04:49:52;;;;;;;3.70;1.90;;;;;;;9.04;58.68;98148.30;105796;1253;74465;-27
2024/04/21 04:52:20;;;;;;;5.50;1.90;;;;;;;9.04;58.69;98149.52;105641;1257;72812;-27
2024/04/21 04:54:47;;;;;;;3.80;2.00;;;;;;;8.79;59.50;98146.83;105633;1257;61128;-27
2024/04/21 04:57:15;;;;;;;2.20;1.60;;;;;;;8.82;59.56;98140.14;105732;1257;61100;-27
2024/04/21 04:59:42;;;;;;;2.90;1.80;;;;;;;8.42;60.68;98143.16;105674;1258;72640;-27
2024/04/21 05:02:10;;;;;;;2.50;1.90;;;;;;;8.45;61.06;98139.59;105716;1257;72763;-27
2024/04/21 05:04:37;;;;;;;2.80;2.00;;;;;;;8.76;60.35;98129.69;105638;1254;72753;-26
2024/04/21 05:07:05;;;;;;;2.10;1.40;;;;;;;8.12;62.29;98135.98;105622;1257;61166;-27
2024/04/21 05:09:32;;;;;;;2.00;1.60;;;;;;;8.82;60.54;98129.05;105668;1253;62171;-28
2024/04/21 05:12:00;;;;;;;2.00;1.50;;;;;;;9.31;58.95;98132.25;105659;1259;72641;-27
2024/04/21 05:14:27;;;;;;;5.30;1.80;;;;;;;8.90;60.03;98130.13;105484;1253;74448;-27
2024/04/21 05:16:55;;;;;;;1.70;1.20;;;;;;;8.63;60.96;98128.70;105670;1253;71459;-27
2024/04/21 05:19:22;;;;;;;2.70;1.60;;;;;;;8.65;61.27;98130.91;105668;1259;61194;-27
2024/04/21 05:21:50;;;;;;;2.50;1.70;;;;;;;8.39;61.83;98128.02;105844;1252;61375;-27
2024/04/21 05:24:17;;;;;;;3.10;1.80;;;;;;;8.18;63.02;98130.45;105659;1258;73830;-27
2024/04/21 05:26:45;;;;;;;3.20;2.40;;;;;;;8.33;63.02;98130.27;105716;1253;73059;-27
2024/04/21 05:29:12;;;;;;;3.50;2.50;;;;;;;8.25;63.30;98122.80;105813;1254;72676;-27
2024/04/21 05:31:40;;;;;;;2.60;1.60;;;;;;;8.07;64.12;98120.31;105778;1252;61157;-27
2024/04/21 05:34:07;;;;;;;3.00;2.00;;;;;;;8.64;62.83;98116.84;105856;1257;62199;-27
2024/04/21 05:36:35;;;;;;;2.60;1.50;;;;;;;8.70;62.43;98119.09;105865;1253;73811;-27
2024/04/21 05:39:02;;;;;;;1.80;1.70;;;;;;;8.51;63.03;98112.20;105565;1259;73594;-27
2024/04/21 05:41:30;;;;;;;2.70;1.90;;;;;;;9.00;61.89;98101.38;105843;1253;72682;-27
2024/04/21 05:43:57;;;;;;;6.10;1.70;;;;;;;9.14;61.61;98107.73;105840;1256;61337;-27
2024/04/21 05:46:25;;;;;;;2.70;1.50;;;;;;;8.98;62.07;98107.27;105787;1257;61278;-27
2024/04/21 05:48:53;;;;;;;2.90;1.40;;;;;;;8.63;63.42;98102.23;105845;1253;74156;-27
2024/04/21 05:51:20;;;;;;;4.10;1.50;;;;;;;8.29;64.52;98104.95;105914;1257;74562;-27
2024/04/21 05:53:48;;;;;;;1.50;1.10;;;;;;;7.97;65.99;98101.45;105844;1254;72677;-27
2024/04/21 05:56:16;;;;;;;1.00;0.90;;;;;;;8.16;65.39;98094.83;105852;1256;61190;-27
2024/04/21 05:58:44;;;;;;;4.50;1.50;;;;;;;8.15;65.97;98091.84;105836;1257;61291;-28
2024/04/21 06:01:11;;;;;;;1.70;1.10;;;;;;;8.52;65.34;98091.20;105655;1253;74726;-27
2024/04/21 06:03:39;;;;;;;1.30;1.20;;;;;;;8.60;65.25;98087.42;105688;1254;74445;-27
2024/04/21 06:06:06;;;;;;;2.70;1.10;;;;;;;8.28;66.26;98083.95;105593;1256;72670;-27
2024/04/21 06:08:34;;;;;;;2.00;1.40;;;;;;;7.93;67.32;98077.95;105716;1257;61335;-27
2024/04/21 06:11:01;;;;;;;4.00;1.60;;;;;;;7.87;68.14;98074.48;105857;1253;61205;-27
2024/04/21 06:13:29;;;;;;;2.50;1.70;;;;;;;7.93;68.36;98073.42;105828;1257;73364;-27
2024/04/21 06:15:56;;;;;;;2.00;1.50;;;;;;;7.92;68.15;98078.42;105781;1259;74433;-27
2024/04/21 06:18:24;;;;;;;2.00;1.20;;;;;;;8.58;67.15;98074.56;105806;1257;72685;-27
2024/04/21 06:20:52;;;;;;;2.80;1.40;;;;;;;8.06;67.98;98070.06;105753;1255;62665;-27
2024/04/21 06:23:19;;;;;;;2.30;1.40;;;;;;;7.66;69.88;98068.67;105764;1253;61238;-27
2024/04/21 06:25:47;;;;;;;2.00;1.60;;;;;;;7.72;69.65;98068.85;105650;1259;74624;-27
2024/04/21 06:28:15;;;;;;;2.30;1.40;;;;;;;7.95;69.67;98070.88;105643;1253;74533;-27
2024/04/21 06:30:43;;;;;;;4.90;1.40;;;;;;;8.16;68.60;98068.26;105726;1253;71447;-27
2024/04/21 06:33:10;;;;;;;1.90;1.40;;;;;;;8.25;69.34;98069.71;105705;1253;61385;-27
2024/04/21 06:35:39;;;;;;;1.90;1.60;;;;;;;8.18;69.38;98071.85;105624;1253;61685;-27
2024/04/21 06:38:06;;;;;;;2.50;1.40;;;;;;;7.76;70.83;98074.20;105504;1259;73448;-27
2024/04/21 06:40:34;;;;;;;2.80;2.10;;;;;;;7.65;71.93;98074.30;105698;1253;74267;-26
2024/04/21 06:43:02;;;;;;;3.20;1.50;;;;;;;7.62;72.31;98071.30;105573;1259;72702;-25
2024/04/21 06:45:29;;;;;;;3.00;1.40;;;;;;;8.12;71.17;98067.53;105832;1257;61247;-26
2024/04/21 06:47:57;;;;;;;2.70;1.40;;;;;;;8.09;71.02;98071.23;105713;1258;61308;-26
2024/04/21 06:50:24;;;;;;;1.50;1.20;;;;;;;7.78;71.43;98071.27;105815;1254;74673;-26
2024/04/21 06:52:52;;;;;;;1.60;1.20;;;;;;;7.37;72.92;98072.33;105658;1257;74491;-25
2024/04/21 06:55:20;;;;;;;2.90;1.40;;;;;;;7.10;74.20;98072.29;105755;1257;72698;-23
2024/04/21 06:57:48;;;;;;;1.90;1.40;;;;;;;7.73;74.04;98081.41;105664;1254;61757;-25
2024/04/21 07:00:15;;;;;;;1.50;1.00;;;;;;;8.17;71.80;98074.17;105568;1257;62654;-26
2024/04/21 07:02:43;;;;;;;1.40;1.00;;;;;;;7.70;72.95;98071.77;105790;1259;73398;-24
2024/04/21 07:05:10;;;;;;;2.40;1.40;;;;;;;7.29;74.63;98070.50;105754;1256;76695;-24
2024/04/21 07:07:38;;;;;;;3.30;1.00;;;;;;;7.46;74.38;98070.84;105682;1257;71755;-24
2024/04/21 07:10:06;;;;;;;5.20;1.30;;;;;;;7.57;74.14;98068.02;105746;1253;62321;-25
2024/04/21 07:12:34;;;;;;;4.40;1.70;;;;;;;7.54;75.42;98067.45;105599;1254;61277;-25
2024/04/21 07:15:02;;;;;;;2.40;1.20;;;;;;;8.17;73.30;98070.59;105591;1257;73673;-25
2024/04/21 07:17:29;;;;;;;1.60;1.20;;;;;;;8.64;71.01;98069.73;105743;1257;74438;-24
2024/04/21 07:19:57;;;;;;;2.50;1.50;;;;;;;8.39;70.55;98070.39;105753;1257;71437;-25
2024/04/21 07:22:24;;;;;;;2.90;1.70;;;;;;;7.21;74.26;98073.27;105640;1259;61257;-25
2024/04/21 07:24:52;;;;;;;7.40;2.20;;;;;;;7.58;73.78;98069.50;105728;1254;61185;-24
2024/04/21 07:27:19;;;;;;;2.40;1.50;;;;;;;7.48;74.57;98075.67;105851;1257;73522;-25
2024/04/21 07:29:47;;;;;;;2.40;1.20;;;;;;;8.16;71.82;98070.08;105800;1258;73921;-25
2024/04/21 07:32:15;;;;;;;2.40;1.80;;;;;;;8.22;70.89;98072.91;105642;1254;72839;-25
2024/04/21 07:34:42;;;;;;;3.20;1.20;;;;;;;8.24;70.87;98071.98;105649;1257;61337;-25
2024/04/21 07:37:10;;;;;;;2.30;1.40;;;;;;;8.17;70.81;98066.02;105659;1253;61259;-25
2024/04/21 07:39:37;;;;;;;2.10;1.20;;;;;;;7.64;72.74;98061.98;105681;1254;73814;-26
2024/04/21 07:42:05;;;;;;;0.90;0.80;;;;;;;7.59;73.48;98061.33;105698;1256;73118;-26
2024/04/21 07:44:33;;;;;;;2.40;1.30;;;;;;;8.34;71.49;98064.22;105669;1259;72728;-26
2024/04/21 07:47:00;;;;;;;2.40;1.60;;;;;;;8.17;71.07;98064.83;105670;1259;61807;-26
2024/04/21 07:49:28;;;;;;;1.10;1.00;;;;;;;8.56;70.47;98066.86;105710;1256;61212;-25
2024/04/21 07:51:56;;;;;;;1.30;1.00;;;;;;;8.46;70.35;98063.55;105859;1253;74807;-26
2024/04/21 07:54:23;;;;;;;2.00;1.40;;;;;;;8.43;70.55;98062.39;105613;1256;74638;-26
2024/04/21 07:56:51;;;;;;;3.20;1.00;;;;;;;8.02;72.40;98066.13;105856;1257;70464;-26
2024/04/21 07:59:18;;;;;;;1.40;0.80;;;;;;;8.16;71.56;98056.02;105798;1257;61287;-27
2024/04/21 08:01:46;;;;;;;0.80;0.70;;;;;;;8.33;71.01;98049.11;105751;1256;61292;-26
2024/04/21 08:04:14;;;;;;;0.80;0.70;;;;;;;8.47;70.97;98041.89;105895;1257;73650;-26
2024/04/21 08:06:41;;;;;;;2.50;1.20;;;;;;;8.17;72.34;98028.88;105552;1259;74470;-27
2024/04/21 08:09:09;;;;;;;1.90;1.80;;;;;;;7.93;72.85;98019.91;105675;1256;71463;-27
2024/04/21 08:11:56;;;;;;;2.50;2.10;;;;;;;7.98;73.48;98015.33;105750;1253;61760;-27
2024/04/21 08:14:23;;;;;;;2.80;1.60;;;;;;;8.23;72.50;98017.13;105638;1256;61330;-27
2024/04/21 08:16:51;;;;;;;1.60;1.10;;;;;;;8.27;71.89;98017.67;105637;1256;73398;-27
2024/04/21 08:19:18;;;;;;;1.20;1.10;;;;;;;7.96;72.86;98017.42;105738;1257;74627;-27
2024/04/21 08:21:46;;;;;;;1.80;1.50;;;;;;;8.15;72.74;98035.13;105695;1259;73117;-27
2024/04/21 08:24:14;;;;;;;1.80;1.20;;;;;;;7.95;73.65;98038.96;105641;1254;61360;-27
2024/04/21 08:26:41;;;;;;;4.80;3.40;;;;;;;8.37;72.72;98036.67;105521;1251;61289;-27
2024/04/21 08:29:09;;;;;;;1.10;1.00;;;;;;;8.47;71.13;98032.52;105517;1256;74760;-27
2024/04/21 08:31:36;;;;;;;2.10;1.20;;;;;;;7.99;72.78;98043.73;105575;1256;74593;-28
2024/04/21 08:34:03;;;;;;;5.50;1.70;;;;;;;8.52;71.89;98045.62;105615;1255;72828;-27
2024/04/21 08:36:31;;;;;;;1.60;1.30;;;;;;;7.98;72.46;98049.22;105610;1258;61345;-27
2024/04/21 08:38:59;;;;;;;1.80;0.90;;;;;;;8.09;73.04;98053.75;105631;1254;61257;-27
2024/04/21 08:41:26;;;;;;;6.40;1.30;;;;;;;8.42;71.47;98046.28;105723;1257;74842;-27
2024/04/21 08:43:55;;;;;;;3.20;1.90;;;;;;;8.45;71.06;98047.21;105592;1258;74572;-27
2024/04/21 08:46:23;;;;;;;2.10;1.70;;;;;;;8.19;71.74;98041.16;105620;1254;72829;-27
2024/04/21 08:48:52;;;;;;;2.30;1.50;;;;;;;7.95;72.70;98030.77;105709;1256;61307;-27
2024/04/21 08:51:20;;;;;;;2.20;2.00;;;;;;;8.03;72.73;98033.05;105704;1256;61228;-26
2024/04/21 08:53:48;;;;;;;3.10;1.00;;;;;;;7.62;73.72;98034.14;105923;1257;74889;-26
2024/04/21 08:56:19;;;;;;;2.10;1.30;;;;;;;8.05;73.44;98037.36;105815;1266;74930;-26
2024/04/21 08:58:48;;;;;;;3.10;1.70;;;;;;;8.27;72.24;98035.65;105647;1261;72794;-27
2024/04/21 09:01:18;;;;;;;1.30;1.00;;;;;;;8.03;72.96;98025.82;105580;1258;61296;-26
2024/04/21 09:03:48;;;;;;;1.20;1.10;;;;;;;8.24;72.37;98025.89;105613;1253;61712;-26
2024/04/21 09:06:16;;;;;;;2.30;0.90;;;;;;;7.83;74.00;98022.48;105701;1262;73923;-26
2024/04/21 09:08:44;;;;;;;2.10;1.60;;;;;;;8.06;73.80;98024.30;105672;1256;73716;-27
2024/04/21 09:11:11;;;;;;;1.40;1.10;;;;;;;8.27;71.85;98022.69;105595;1257;72214;-28
2024/04/21 09:13:39;;;;;;;1.60;0.90;;;;;;;8.11;72.89;98021.84;105703;1258;61221;-28
2024/04/21 09:16:06;;;;;;;1.50;0.90;;;;;;;8.03;73.41;98024.72;105889;1266;61243;-27
2024/04/21 09:18:34;;;;;;;1.80;0.80;;;;;;;7.79;73.85;98022.28;105807;1254;74340;-27
2024/04/21 09:21:02;;;;;;;1.00;0.80;;;;;;;7.89;74.29;98029.59;105834;1258;74072;-27
2024/04/21 09:23:29;;;;;;;1.30;0.90;;;;;;;7.94;73.80;98029.52;105731;1257;71520;-27
2024/04/21 09:25:57;;;;;;;0.80;0.80;;;;;;;7.89;73.64;98026.11;105851;1258;61327;-28
2024/04/21 09:28:24;;;;;;;3.70;1.20;;;;;;;7.96;73.42;98027.25;105738;1257;61223;-28
2024/04/21 09:30:52;;;;;;;0.60;0.60;;;;;;;7.38;74.49;98022.36;105890;1256;76150;-28
2024/04/21 09:33:20;;;;;;;1.30;0.80;;;;;;;7.19;75.70;98028.42;105711;1267;74470;-28
2024/04/21 09:35:48;;;;;;;2.10;1.30;;;;;;;7.46;75.01;98016.66;105867;1254;71515;-26
2024/04/21 09:38:16;;;;;;;1.60;0.80;;;;;;;7.88;73.41;98011.52;105720;1260;61346;-31
2024/04/21 09:40:43;;;;;;;0.70;0.60;;;;;;;7.63;73.89;98007.59;105615;1257;61306;-27
2024/04/21 09:43:11;;;;;;;1.10;1.00;;;;;;;7.22;75.66;98021.04;105682;1256;73558;-27
2024/04/21 09:45:38;;;;;;;7.20;3.90;;;;;;;6.83;76.94;98009.95;105780;1257;75040;-26
2024/04/21 09:48:06;;;;;;;1.40;0.90;;;;;;;7.46;75.86;98013.88;105590;1265;71469;-26
2024/04/21 09:50:35;;;;;;;0.90;0.70;;;;;;;7.48;74.61;98007.69;105688;1268;61372;-26
2024/04/21 09:53:02;;;;;;;0.70;0.60;;;;;;;7.59;74.87;98011.75;105690;1254;61225;-27
2024/04/21 09:55:31;;;;;;;1.40;0.90;;;;;;;7.47;75.73;98008.13;105545;1254;74446;-27
2024/04/21 09:58:00;;;;;;;1.40;0.90;;;;;;;7.18;76.32;97998.78;105576;1260;74517;-26
2024/04/21 10:00:30;;;;;;;0.40;0.40;;;;;;;7.42;75.58;98007.11;105408;1254;72761;-26
2024/04/21 10:03:01;;;;;;;0.40;0.40;;;;;;;7.69;74.69;98001.08;105384;1253;61361;-27
2024/04/21 10:05:29;;;;;;;0.90;0.80;;;;;;;7.53;74.87;97995.63;105610;1260;61339;-26
2024/04/21 10:08:00;;;;;;;0.60;0.60;;;;;;;7.23;75.88;98000.08;105413;1261;76910;-27
2024/04/21 10:10:29;;;;;;;0.80;0.50;;;;;;;7.40;76.37;98000.23;105644;1256;73582;-27
2024/04/21 10:12:57;;;;;;;1.20;0.70;;;;;;;7.92;74.06;97997.52;105666;1254;72830;-27
2024/04/21 10:15:25;;;;;;;1.90;0.50;;;;;;;7.85;74.64;97996.02;105877;1256;61419;-27
2024/04/21 10:18:02;;;;;;;1.50;0.70;;;;;;;7.93;74.46;97993.63;105548;1257;61295;-28
2024/04/21 10:20:36;;;;;;;0.80;0.70;;;;;;;7.68;75.86;97999.27;105189;1259;76879;-27
2024/04/21 10:23:09;;;;;;;1.60;0.60;;;;;;;7.36;76.79;97996.61;105645;1256;73945;-26
2024/04/21 10:25:38;;;;;;;1.90;0.70;;;;;;;7.93;74.98;97999.00;105599;1251;73410;-26
2024/04/21 10:28:07;;;;;;;1.40;1.00;;;;;;;7.73;74.78;97992.23;105467;1255;61391;-26
2024/04/21 10:30:38;;;;;;;1.70;1.10;;;;;;;7.83;75.23;97995.02;105494;1254;61256;-26
2024/04/21 10:33:10;;;;;;;1.10;0.60;;;;;;;7.28;76.01;97993.96;105657;1257;73743;-26
2024/04/21 10:35:40;;;;;;;0.60;0.40;;;;;;;6.93;78.12;97997.56;105701;1251;73546;-26
2024/04/21 10:38:14;;;;;;;1.10;0.70;;;;;;;7.57;76.09;97994.64;105599;1259;72144;-27
2024/04/21 10:40:48;;;;;;;2.40;0.60;;;;;;;7.60;75.83;97991.43;105590;1259;61323;-26
2024/04/21 10:43:16;;;;;;;0.90;0.70;;;;;;;7.59;76.07;97997.98;105679;1251;61251;-26
2024/04/21 10:45:44;;;;;;;0.50;0.50;;;;;;;7.23;77.18;97998.70;105823;1257;73965;-26
2024/04/21 10:48:12;;;;;;;0.40;0.40;;;;;;;7.35;78.00;98002.58;105637;1257;75194;-26
2024/04/21 10:50:41;;;;;;;0.70;0.50;;;;;;;7.67;75.83;97995.36;105807;1256;73743;-26
2024/04/21 10:53:08;;;;;;;1.10;0.60;;;;;;;7.69;75.37;97995.84;105696;1258;61330;-25
2024/04/21 10:55:36;;;;;;;0.60;0.50;;;;;;;7.28;76.57;98003.70;105617;1251;61285;-26
2024/04/21 10:58:04;;;;;;;1.20;0.60;;;;;;;7.36;76.51;98004.58;105708;1257;75050;-26
2024/04/21 11:00:36;;;;;;;0.50;0.40;;;;;;;7.56;76.62;98005.98;105808;1254;73888;-25
2024/04/21 11:03:05;;;;;;;0.60;0.50;;;;;;;7.84;75.79;98003.55;105841;1259;71822;-25
2024/04/21 11:05:53;;;;;;;0.70;0.50;;;;;;;8.09;75.20;97999.90;105365;1254;61395;-25
2024/04/21 11:08:23;;;;;;;0.40;0.40;;;;;;;7.63;75.48;98005.75;105654;1256;61326;-26
2024/04/21 11:10:51;;;;;;;0.50;0.50;;;;;;;7.34;75.85;98003.02;105852;1256;74913;-26
2024/04/21 11:13:18;;;;;;;6.20;2.60;;;;;;;7.24;77.07;98006.73;105617;1254;76776;-26
2024/04/21 11:15:46;;;;;;;2.20;1.60;;;;;;;7.68;76.24;98005.11;105879;1258;71935;-26
2024/04/21 11:18:15;;;;;;;3.30;1.50;;;;;;;7.94;74.42;97995.65;105849;1259;61308;-26
2024/04/21 11:20:43;;;;;;;1.00;0.40;;;;;;;8.08;74.79;98003.89;105877;1253;61259;-26
2024/04/21 11:23:13;;;;;;;0.30;0.30;;;;;;;7.93;74.52;97998.45;105670;1254;75133;-26
2024/04/21 11:25:41;;;;;;;0.40;0.40;;;;;;;7.32;76.07;98005.77;105815;1254;74000;-26
2024/04/21 11:28:13;;;;;;;0.80;0.50;;;;;;;7.16;76.96;98008.09;105741;1253;72788;-25
2024/04/21 11:30:42;;;;;;;1.40;0.50;;;;;;;7.66;75.70;98007.20;105722;1254;61244;-26
2024/04/21 11:33:12;;;;;;;1.10;0.70;;;;;;;7.90;74.30;98011.01;105865;1251;61375;-26
2024/04/21 11:35:40;;;;;;;2.30;0.50;;;;;;;7.54;74.89;98007.86;105852;1256;73811;-25
2024/04/21 11:38:08;;;;;;;0.50;0.50;;;;;;;7.22;76.16;98005.23;105872;1258;75533;-26
2024/04/21 11:40:39;;;;;;;0.30;0.30;;;;;;;7.22;76.71;98012.31;105826;1257;73521;-26